createdAt,value
2022-08-11T00:00:54.644Z,21.18
2022-08-11T00:01:59.758Z,21.22
2022-08-11T00:03:07.973Z,21.27
2022-08-11T00:04:10.752Z,21.23
2022-08-11T00:05:18.626Z,21.25
2022-08-11T00:06:31.934Z,21.25
2022-08-11T00:07:35.541Z,21.30
2022-08-11T00:08:38.293Z,21.31
2022-08-11T00:09:40.501Z,21.34
2022-08-11T00:10:42.305Z,21.37
2022-08-11T00:11:53.020Z,21.41
2022-08-11T00:12:59.264Z,21.45
2022-08-11T00:14:01.420Z,21.49
2022-08-11T00:15:03.503Z,21.54
2022-08-11T00:16:14.564Z,21.56
2022-08-11T00:17:17.672Z,21.58
2022-08-11T00:18:20.176Z,21.56
2022-08-11T00:20:12.792Z,21.40
2022-08-11T00:20:48.255Z,21.29
2022-08-11T00:22:05.033Z,21.25
2022-08-11T00:23:14.655Z,21.36
2022-08-11T00:24:22.005Z,21.44
2022-08-11T00:25:24.347Z,21.49
2022-08-11T00:26:27.816Z,21.54
2022-08-11T00:27:34.866Z,21.55
2022-08-11T00:28:37.026Z,21.50
2022-08-11T00:29:38.800Z,21.48
2022-08-11T00:30:55.690Z,21.41
2022-08-11T00:32:01.966Z,21.33
2022-08-11T00:33:05.135Z,21.32
2022-08-11T00:34:12.363Z,21.32
2022-08-11T00:35:56.095Z,21.38
2022-08-11T00:36:48.931Z,21.44
2022-08-11T00:37:54.734Z,21.48
2022-08-11T00:39:04.658Z,21.37
2022-08-11T00:40:20.074Z,21.33
2022-08-11T00:41:57.078Z,21.28
2022-08-11T00:43:35.091Z,21.26
2022-08-11T00:44:40.286Z,21.26
2022-08-11T00:45:55.889Z,21.23
2022-08-11T00:47:18.821Z,21.21
2022-08-11T00:48:29.721Z,21.20
2022-08-11T00:49:52.650Z,21.22
2022-08-11T00:51:25.435Z,21.20
2022-08-11T00:52:57.522Z,21.06
2022-08-11T00:54:25.127Z,20.93
2022-08-11T00:55:34.044Z,20.91
2022-08-11T00:57:36.173Z,21.01
2022-08-11T00:58:40.028Z,21.01
2022-08-11T01:00:11.125Z,21.01
2022-08-11T01:01:20.909Z,21.01
2022-08-11T01:02:47.001Z,20.99
2022-08-11T01:04:07.088Z,21.02
2022-08-11T01:05:27.273Z,21.05
2022-08-11T01:06:54.518Z,21.05
2022-08-11T01:08:34.059Z,21.08
2022-08-11T01:09:53.773Z,21.09
2022-08-11T01:11:14.174Z,21.12
2022-08-11T01:12:45.721Z,21.17
2022-08-11T01:13:53.277Z,21.17
2022-08-11T01:14:54.872Z,21.19
2022-08-11T01:16:37.433Z,21.20
2022-08-11T01:17:41.982Z,21.22
2022-08-11T01:19:19.554Z,21.24
2022-08-11T01:20:47.185Z,21.17
2022-08-11T01:22:10.748Z,21.15
2022-08-11T01:23:34.091Z,21.14
2022-08-11T01:24:44.805Z,21.19
2022-08-11T01:26:23.565Z,21.25
2022-08-11T01:27:37.268Z,21.28
2022-08-11T01:28:57.546Z,21.31
2022-08-11T01:30:23.767Z,21.39
2022-08-11T01:31:54.503Z,21.40
2022-08-11T01:33:33.310Z,21.35
2022-08-11T01:34:49.856Z,21.30
2022-08-11T01:36:09.848Z,21.32
2022-08-11T01:37:30.369Z,21.32
2022-08-11T01:39:09.399Z,21.31
2022-08-11T01:40:40.523Z,21.29
2022-08-11T01:42:23.800Z,21.23
2022-08-11T01:43:52.431Z,21.00
2022-08-11T01:45:16.138Z,20.61
2022-08-11T01:46:43.726Z,20.31
2022-08-11T01:47:55.943Z,19.93
2022-08-11T01:50:06.515Z,19.69
2022-08-11T01:51:01.626Z,19.61
2022-08-11T01:52:18.716Z,19.66
2022-08-11T01:53:46.747Z,19.70
2022-08-11T01:55:10.010Z,19.64
2022-08-11T01:56:33.892Z,19.55
2022-08-11T01:57:47.508Z,19.47
2022-08-11T01:59:12.419Z,19.39
2022-08-11T02:00:20.986Z,19.36
2022-08-11T02:01:41.001Z,19.39
2022-08-11T02:02:54.177Z,19.37
2022-08-11T02:04:34.061Z,19.40
2022-08-11T02:06:33.962Z,19.40
2022-08-11T02:08:13.214Z,19.37
2022-08-11T02:09:34.315Z,19.34
2022-08-11T02:11:20.443Z,19.26
2022-08-11T02:12:53.015Z,19.22
2022-08-11T02:14:20.781Z,19.22
2022-08-11T02:15:36.431Z,19.29
2022-08-11T02:17:02.624Z,19.34
2022-08-11T02:18:10.587Z,19.32
2022-08-11T02:19:36.864Z,19.35
2022-08-11T02:21:03.035Z,19.39
2022-08-11T02:22:49.499Z,19.49
2022-08-11T02:24:08.093Z,19.57
2022-08-11T02:25:22.483Z,19.53
2022-08-11T02:26:48.769Z,19.50
2022-08-11T02:28:01.029Z,19.49
2022-08-11T02:29:28.924Z,19.52
2022-08-11T02:30:38.315Z,19.60
2022-08-11T02:32:25.676Z,19.69
2022-08-11T02:33:36.578Z,19.88
2022-08-11T02:34:44.544Z,19.95
2022-08-11T02:36:10.880Z,20.05
2022-08-11T02:37:24.822Z,20.07
2022-08-11T02:38:51.293Z,20.11
2022-08-11T02:39:58.706Z,20.10
2022-08-11T02:41:26.088Z,20.09
2022-08-11T02:42:39.861Z,20.06
2022-08-11T02:43:51.060Z,20.08
2022-08-11T02:45:26.470Z,20.12
2022-08-11T02:46:37.134Z,20.17
2022-08-11T02:48:22.417Z,20.22
2022-08-11T02:49:59.945Z,20.26
2022-08-11T02:51:22.152Z,20.31
2022-08-11T02:52:59.149Z,20.32
2022-08-11T02:54:41.946Z,20.33
2022-08-11T02:56:09.147Z,20.37
2022-08-11T02:57:24.178Z,20.45
2022-08-11T02:59:08.730Z,20.49
2022-08-11T03:00:14.363Z,20.50
2022-08-11T03:01:23.745Z,20.44
2022-08-11T03:03:13.372Z,20.40
2022-08-11T03:04:25.241Z,20.34
2022-08-11T03:05:45.454Z,20.38
2022-08-11T03:06:59.326Z,20.39
2022-08-11T03:08:24.127Z,20.39
2022-08-11T03:10:03.946Z,20.23
2022-08-11T03:11:30.093Z,20.16
2022-08-11T03:13:04.476Z,20.11
2022-08-11T03:14:37.921Z,20.09
2022-08-11T03:16:10.799Z,20.04
2022-08-11T03:17:46.302Z,20.06
2022-08-11T03:19:23.541Z,19.79
2022-08-11T03:20:46.634Z,19.55
2022-08-11T03:22:03.044Z,19.44
2022-08-11T03:23:29.736Z,19.45
2022-08-11T03:24:46.976Z,19.44
2022-08-11T03:26:15.722Z,19.34
2022-08-11T03:27:20.312Z,19.32
2022-08-11T03:29:02.230Z,19.32
2022-08-11T03:30:03.809Z,19.33
2022-08-11T03:31:24.922Z,19.10
2022-08-11T03:33:18.441Z,18.90
2022-08-11T03:34:25.389Z,18.74
2022-08-11T03:35:30.480Z,18.79
2022-08-11T03:37:15.432Z,18.68
2022-08-11T03:38:02.770Z,18.68
2022-08-11T03:39:04.325Z,18.51
2022-08-11T03:40:45.649Z,18.35
2022-08-11T03:42:14.765Z,18.14
2022-08-11T03:43:34.794Z,18.09
2022-08-11T03:44:42.541Z,17.97
2022-08-11T03:46:17.014Z,17.96
2022-08-11T03:47:24.384Z,18.00
2022-08-11T03:48:53.552Z,17.94
2022-08-11T03:50:25.089Z,17.93
2022-08-11T03:51:54.309Z,17.89
2022-08-11T03:53:14.217Z,17.85
2022-08-11T03:54:45.920Z,17.87
2022-08-11T03:56:24.728Z,17.83
2022-08-11T03:58:11.669Z,17.87
2022-08-11T03:59:38.225Z,18.02
2022-08-11T04:00:56.248Z,18.02
2022-08-11T04:02:25.666Z,18.14
2022-08-11T04:03:46.978Z,18.19
2022-08-11T04:04:51.638Z,18.12
2022-08-11T04:06:25.283Z,18.29
2022-08-11T04:07:47.409Z,18.45
2022-08-11T04:08:54.762Z,18.66
2022-08-11T04:10:58.218Z,18.81
2022-08-11T04:12:49.644Z,18.98
2022-08-11T04:14:44.042Z,19.16
2022-08-11T04:16:11.739Z,19.30
2022-08-11T04:17:38.594Z,19.28
2022-08-11T04:18:52.134Z,19.15
2022-08-11T04:20:31.167Z,19.30
2022-08-11T04:21:35.702Z,19.42
2022-08-11T04:23:06.488Z,19.40
2022-08-11T04:24:39.652Z,19.33
2022-08-11T04:26:22.244Z,19.31
2022-08-11T04:27:59.078Z,19.39
2022-08-11T04:29:24.965Z,19.49
2022-08-11T04:31:50.363Z,19.78
2022-08-11T04:32:59.989Z,20.01
2022-08-11T04:34:06.947Z,20.10
2022-08-11T04:35:16.602Z,20.27
2022-08-11T04:36:55.389Z,20.20
2022-08-11T04:38:23.939Z,20.20
2022-08-11T04:39:39.859Z,20.21
2022-08-11T04:41:08.865Z,20.50
2022-08-11T04:42:44.750Z,20.75
2022-08-11T04:44:12.193Z,20.98
2022-08-11T04:45:37.200Z,21.11
2022-08-11T04:47:01.877Z,20.87
2022-08-11T04:48:40.747Z,20.80
2022-08-11T04:50:17.152Z,20.87
2022-08-11T04:51:58.843Z,20.77
2022-08-11T04:53:32.010Z,20.68
2022-08-11T04:55:34.752Z,20.54
2022-08-11T04:57:02.175Z,20.25
2022-08-11T04:58:38.351Z,20.48
2022-08-11T05:00:22.856Z,20.56
2022-08-11T05:01:42.270Z,20.73
2022-08-11T05:03:08.813Z,20.94
2022-08-11T05:04:51.718Z,21.21
2022-08-11T05:06:14.692Z,21.44
2022-08-11T05:07:28.083Z,21.70
2022-08-11T05:09:03.825Z,21.84
2022-08-11T05:10:08.507Z,21.56
2022-08-11T05:11:31.810Z,21.47
2022-08-11T05:13:28.116Z,21.37
2022-08-11T05:14:54.501Z,21.26
2022-08-11T05:16:18.406Z,21.40
2022-08-11T05:18:23.153Z,21.53
2022-08-11T05:19:43.306Z,21.63
2022-08-11T05:21:15.607Z,21.84
2022-08-11T05:22:38.075Z,21.96
2022-08-11T05:24:04.442Z,22.15
2022-08-11T05:26:44.689Z,22.43
2022-08-11T05:27:13.791Z,22.56
2022-08-11T05:28:40.398Z,22.66
2022-08-11T05:30:00.398Z,22.92
2022-08-11T05:31:30.867Z,23.14
2022-08-11T05:33:01.411Z,23.49
2022-08-11T05:34:40.588Z,23.76
2022-08-11T05:36:01.800Z,23.95
2022-08-11T05:37:26.074Z,24.17
2022-08-11T05:38:52.093Z,24.29
2022-08-11T05:40:18.979Z,24.41
2022-08-11T05:41:45.341Z,24.56
2022-08-11T05:43:14.097Z,24.86
2022-08-11T05:44:45.795Z,25.02
2022-08-11T05:46:39.072Z,25.05
2022-08-11T05:48:18.029Z,25.19
2022-08-11T05:49:40.115Z,25.21
2022-08-11T05:51:13.006Z,25.26
2022-08-11T05:57:50.697Z,25.26
2022-08-11T06:05:47.285Z,25.89
2022-08-11T06:09:58.381Z,25.79
2022-08-11T06:12:46.018Z,25.65
2022-08-11T06:13:51.971Z,25.76
2022-08-11T06:15:06.113Z,25.59
2022-08-11T06:16:11.805Z,25.36
2022-08-11T06:17:27.120Z,25.48
2022-08-11T06:18:57.998Z,25.96
2022-08-11T06:21:23.541Z,26.69
2022-08-11T06:22:27.726Z,26.82
2022-08-11T06:23:36.146Z,26.99
2022-08-11T06:24:42.077Z,27.12
2022-08-11T06:25:44.365Z,27.19
2022-08-11T06:28:20.638Z,27.69
2022-08-11T06:29:37.497Z,27.90
2022-08-11T06:30:47.345Z,27.96
2022-08-11T06:32:00.930Z,27.76
2022-08-11T06:33:06.019Z,27.29
2022-08-11T06:34:33.147Z,27.19
2022-08-11T06:36:07.621Z,27.53
2022-08-11T06:37:36.243Z,27.55
2022-08-11T06:38:58.414Z,27.46
2022-08-11T06:40:08.757Z,27.74
2022-08-11T06:41:36.036Z,27.81
2022-08-11T06:42:53.925Z,27.93
2022-08-11T06:44:17.000Z,28.22
2022-08-11T06:45:40.694Z,28.42
2022-08-11T06:46:53.265Z,28.61
2022-08-11T06:47:58.121Z,28.69
2022-08-11T06:49:03.195Z,28.77
2022-08-11T06:50:25.357Z,28.91
2022-08-11T06:51:27.799Z,29.05
2022-08-11T06:52:36.762Z,29.02
2022-08-11T06:54:04.079Z,28.63
2022-08-11T06:55:57.187Z,28.03
2022-08-11T06:57:29.441Z,27.99
2022-08-11T06:58:40.766Z,27.62
2022-08-11T07:00:03.049Z,27.79
2022-08-11T07:01:13.285Z,27.88
2022-08-11T07:02:22.595Z,28.11
2022-08-11T07:03:28.753Z,28.32
2022-08-11T07:04:44.680Z,28.51
2022-08-11T07:05:46.288Z,28.61
2022-08-11T07:07:20.495Z,28.87
2022-08-11T07:08:43.876Z,29.03
2022-08-11T07:10:42.733Z,28.75
2022-08-11T07:12:35.195Z,29.08
2022-08-11T07:13:57.716Z,29.15
2022-08-11T07:16:11.521Z,28.67
2022-08-11T07:16:59.643Z,28.31
2022-08-11T07:18:25.562Z,28.59
2022-08-11T07:19:52.565Z,28.77
2022-08-11T07:21:42.678Z,28.99
2022-08-11T07:23:19.891Z,29.05
2022-08-11T07:25:01.555Z,29.14
2022-08-11T07:26:23.843Z,29.13
2022-08-11T07:27:50.233Z,28.95
2022-08-11T07:28:58.039Z,29.03
2022-08-11T07:30:02.346Z,29.04
2022-08-11T07:31:08.651Z,29.13
2022-08-11T07:32:16.457Z,29.25
2022-08-11T07:34:08.017Z,29.06
2022-08-11T07:35:08.065Z,27.87
2022-08-11T07:36:12.767Z,27.58
2022-08-11T07:37:17.987Z,28.03
2022-08-11T07:38:25.204Z,28.40
2022-08-11T07:39:34.035Z,28.65
2022-08-11T07:40:36.958Z,28.75
2022-08-11T07:41:39.253Z,28.68
2022-08-11T07:42:46.568Z,28.82
2022-08-11T07:43:55.158Z,28.97
2022-08-11T07:45:18.380Z,29.14
2022-08-11T07:46:39.849Z,29.13
2022-08-11T07:48:00.927Z,29.24
2022-08-11T07:49:23.088Z,28.79
2022-08-11T07:50:44.226Z,28.33
2022-08-11T07:52:04.649Z,28.42
2022-08-11T07:53:06.823Z,28.39
2022-08-11T07:54:16.875Z,28.53
2022-08-11T07:55:49.046Z,28.84
2022-08-11T07:56:54.861Z,28.88
2022-08-11T07:58:20.151Z,29.05
2022-08-11T08:00:03.718Z,29.21
2022-08-11T08:01:22.908Z,29.38
2022-08-11T08:02:43.009Z,29.67
2022-08-11T08:04:04.570Z,29.90
2022-08-11T08:05:25.484Z,30.15
2022-08-11T08:06:48.086Z,30.19
2022-08-11T08:08:08.382Z,30.22
2022-08-11T08:09:29.263Z,30.24
2022-08-11T08:10:49.908Z,30.14
2022-08-11T08:12:10.983Z,30.13
2022-08-11T08:13:32.097Z,30.19
2022-08-11T08:14:53.426Z,30.30
2022-08-11T08:16:14.959Z,30.30
2022-08-11T08:17:35.807Z,30.16
2022-08-11T08:18:39.102Z,30.17
2022-08-11T08:19:44.580Z,30.17
2022-08-11T08:20:51.713Z,30.44
2022-08-11T08:21:53.511Z,30.53
2022-08-11T08:22:58.069Z,30.79
2022-08-11T08:24:00.365Z,30.55
2022-08-11T08:25:02.528Z,30.34
2022-08-11T08:26:26.908Z,30.12
2022-08-11T08:27:28.933Z,30.11
2022-08-11T08:28:34.481Z,29.62
2022-08-11T08:29:56.588Z,29.09
2022-08-11T08:30:58.623Z,28.55
2022-08-11T08:32:02.836Z,28.35
2022-08-11T08:33:05.563Z,28.47
2022-08-11T08:34:07.359Z,28.73
2022-08-11T08:35:11.821Z,28.71
2022-08-11T08:36:17.031Z,28.63
2022-08-11T08:37:44.998Z,28.83
2022-08-11T08:38:54.108Z,28.82
2022-08-11T08:39:58.634Z,28.49
2022-08-11T08:41:01.054Z,28.38
2022-08-11T08:42:07.376Z,28.74
2022-08-11T08:43:14.744Z,29.11
2022-08-11T08:44:37.967Z,29.41
2022-08-11T08:45:42.998Z,29.68
2022-08-11T08:46:49.414Z,29.81
2022-08-11T08:48:04.899Z,29.97
2022-08-11T08:49:09.987Z,30.07
2022-08-11T08:50:16.675Z,30.19
2022-08-11T08:52:01.516Z,30.27
2022-08-11T08:53:05.292Z,30.47
2022-08-11T08:54:16.766Z,30.35
2022-08-11T08:55:19.966Z,30.38
2022-08-11T08:56:28.354Z,30.23
2022-08-11T08:57:38.826Z,30.36
2022-08-11T08:58:43.135Z,30.43
2022-08-11T08:59:49.419Z,30.59
2022-08-11T09:00:54.760Z,30.38
2022-08-11T09:02:02.528Z,29.89
2022-08-11T09:03:22.973Z,29.54
2022-08-11T09:04:27.577Z,29.53
2022-08-11T09:05:29.530Z,29.74
2022-08-11T09:06:33.005Z,29.98
2022-08-11T09:07:39.106Z,30.21
2022-08-11T09:08:42.069Z,30.38
2022-08-11T09:09:46.454Z,30.51
2022-08-11T09:11:13.606Z,30.58
2022-08-11T09:12:35.778Z,30.57
2022-08-11T09:13:44.284Z,30.13
2022-08-11T09:15:00.863Z,30.28
2022-08-11T09:16:06.041Z,30.41
2022-08-11T09:17:07.960Z,30.45
2022-08-11T09:18:11.228Z,30.55
2022-08-11T09:19:18.443Z,30.56
2022-08-11T09:20:20.199Z,30.57
2022-08-11T09:21:46.462Z,30.37
2022-08-11T09:24:45.017Z,30.78
2022-08-11T09:26:06.052Z,31.04
2022-08-11T09:27:08.691Z,31.17
2022-08-11T09:28:12.925Z,31.15
2022-08-11T09:29:14.990Z,31.15
2022-08-11T09:30:16.789Z,31.17
2022-08-11T09:31:21.941Z,31.32
2022-08-11T09:32:24.260Z,31.40
2022-08-11T09:33:26.329Z,31.39
2022-08-11T09:34:28.730Z,31.21
2022-08-11T09:35:34.771Z,31.14
2022-08-11T09:36:56.564Z,30.96
2022-08-11T09:38:17.821Z,30.55
2022-08-11T09:39:38.747Z,30.33
2022-08-11T09:40:45.227Z,30.26
2022-08-11T09:42:01.648Z,30.21
2022-08-11T09:43:28.530Z,30.23
2022-08-11T09:44:53.073Z,30.37
2022-08-11T09:45:57.719Z,30.30
2022-08-11T09:47:00.291Z,30.31
2022-08-11T09:48:05.295Z,30.17
2022-08-11T09:49:07.133Z,30.06
2022-08-11T09:50:10.694Z,29.86
2022-08-11T09:51:13.500Z,29.72
2022-08-11T09:52:16.111Z,29.69
2022-08-11T09:53:36.217Z,29.79
2022-08-11T09:54:43.530Z,29.93
2022-08-11T09:55:51.429Z,30.08
2022-08-11T09:57:12.522Z,30.04
2022-08-11T09:58:42.697Z,30.20
2022-08-11T09:59:38.602Z,30.23
2022-08-11T10:00:41.112Z,30.12
2022-08-11T10:01:49.418Z,30.15
2022-08-11T10:02:54.557Z,30.30
2022-08-11T10:04:04.037Z,30.38
2022-08-11T10:05:26.184Z,30.28
2022-08-11T10:06:48.625Z,30.26
2022-08-11T10:07:57.256Z,30.27
2022-08-11T10:08:59.020Z,30.36
2022-08-11T10:10:02.701Z,30.39
2022-08-11T10:11:06.595Z,30.44
2022-08-11T10:12:12.091Z,30.43
2022-08-11T10:14:30.277Z,30.45
2022-08-11T10:15:04.105Z,30.44
2022-08-11T10:16:15.842Z,30.39
2022-08-11T10:17:21.798Z,30.37
2022-08-11T10:18:49.406Z,30.45
2022-08-11T10:20:05.028Z,30.47
2022-08-11T10:21:12.107Z,30.55
2022-08-11T10:22:36.941Z,30.62
2022-08-11T10:24:01.111Z,30.72
2022-08-11T10:25:26.741Z,30.80
2022-08-11T10:26:49.008Z,30.87
2022-08-11T10:28:28.747Z,30.96
2022-08-11T10:29:59.915Z,30.91
2022-08-11T10:31:22.819Z,30.85
2022-08-11T10:32:57.276Z,30.90
2022-08-11T10:34:03.708Z,31.05
2022-08-11T10:35:09.113Z,31.12
2022-08-11T10:36:16.605Z,31.18
2022-08-11T10:37:22.468Z,31.21
2022-08-11T10:38:25.651Z,31.23
2022-08-11T10:39:27.370Z,31.08
2022-08-11T10:40:29.243Z,31.17
2022-08-11T10:42:06.758Z,31.18
2022-08-11T10:43:14.017Z,30.99
2022-08-11T10:44:17.059Z,31.02
2022-08-11T10:45:38.188Z,31.04
2022-08-11T10:46:58.774Z,31.11
2022-08-11T10:48:01.797Z,31.29
2022-08-11T10:49:03.697Z,31.32
2022-08-11T10:50:28.981Z,31.26
2022-08-11T10:51:53.749Z,31.28
2022-08-11T10:53:16.139Z,31.18
2022-08-11T10:54:36.745Z,31.08
2022-08-11T10:55:58.471Z,31.01
2022-08-11T10:57:19.671Z,30.90
2022-08-11T10:58:40.984Z,30.92
2022-08-11T10:59:43.461Z,31.02
2022-08-11T11:00:45.538Z,31.08
2022-08-11T11:01:48.337Z,31.13
2022-08-11T11:03:22.005Z,31.18
2022-08-11T11:04:17.483Z,31.12
2022-08-11T11:05:28.896Z,31.15
2022-08-11T11:06:51.816Z,31.15
2022-08-11T11:08:28.154Z,30.88
2022-08-11T11:09:39.067Z,30.94
2022-08-11T11:10:41.745Z,30.80
2022-08-11T11:12:08.467Z,30.68
2022-08-11T11:13:29.089Z,30.61
2022-08-11T11:14:56.522Z,30.53
2022-08-11T11:16:19.212Z,30.23
2022-08-11T11:17:47.932Z,30.14
2022-08-11T11:19:00.763Z,30.05
2022-08-11T11:20:06.099Z,29.98
2022-08-11T11:21:15.899Z,30.12
2022-08-11T11:22:36.702Z,30.17
2022-08-11T11:23:40.551Z,30.15
2022-08-11T11:25:04.077Z,30.15
2022-08-11T11:26:33.683Z,30.17
2022-08-11T11:28:11.821Z,30.08
2022-08-11T11:29:53.096Z,30.03
2022-08-11T11:31:22.483Z,29.99
2022-08-11T11:32:49.772Z,29.85
2022-08-11T11:34:24.171Z,29.73
2022-08-11T11:35:48.617Z,29.73
2022-08-11T11:36:58.250Z,29.71
2022-08-11T11:38:04.104Z,29.67
2022-08-11T11:39:08.834Z,29.65
2022-08-11T11:40:14.536Z,29.70
2022-08-11T11:41:25.217Z,29.74
2022-08-11T11:42:27.990Z,29.74
2022-08-11T11:43:30.052Z,29.78
2022-08-11T11:44:33.002Z,29.72
2022-08-11T11:45:35.190Z,29.66
2022-08-11T11:46:39.036Z,29.65
2022-08-11T11:47:41.879Z,29.61
2022-08-11T11:48:44.072Z,29.60
2022-08-11T11:49:48.622Z,29.66
2022-08-11T11:50:50.465Z,29.73
2022-08-11T11:51:53.313Z,29.77
2022-08-11T11:52:55.880Z,29.83
2022-08-11T11:53:57.699Z,29.85
2022-08-11T11:55:00.779Z,29.91
2022-08-11T11:56:03.382Z,29.98
2022-08-11T11:57:23.996Z,29.96
2022-08-11T11:58:46.108Z,29.94
2022-08-11T12:00:08.833Z,29.97
2022-08-11T12:01:16.905Z,29.98
2022-08-11T12:02:18.584Z,30.04
2022-08-11T12:03:22.036Z,30.15
2022-08-11T12:04:24.839Z,30.19
2022-08-11T12:05:28.213Z,30.23
2022-08-11T12:06:30.059Z,30.24
2022-08-11T12:08:06.518Z,30.23
2022-08-11T12:09:15.816Z,30.37
2022-08-11T12:10:19.045Z,30.47
2022-08-11T12:11:43.556Z,30.42
2022-08-11T12:13:05.598Z,30.39
2022-08-11T12:14:10.756Z,30.28
2022-08-11T12:15:13.487Z,30.19
2022-08-11T12:16:34.806Z,30.15
2022-08-11T12:17:38.946Z,30.25
2022-08-11T12:18:42.824Z,30.26
2022-08-11T12:19:48.476Z,30.30
2022-08-11T12:20:50.654Z,30.27
2022-08-11T12:22:14.806Z,30.29
2022-08-11T12:23:35.627Z,30.34
2022-08-11T12:24:59.359Z,30.38
2022-08-11T12:26:27.648Z,30.40
2022-08-11T12:27:30.980Z,30.44
2022-08-11T12:28:34.084Z,30.48
2022-08-11T12:29:36.153Z,30.49
2022-08-11T12:31:49.805Z,30.55
2022-08-11T12:32:52.332Z,30.59
2022-08-11T12:33:56.180Z,30.67
2022-08-11T12:34:58.540Z,30.71
2022-08-11T12:36:01.491Z,30.72
2022-08-11T12:37:06.937Z,30.71
2022-08-11T12:38:10.875Z,30.70
2022-08-11T12:39:24.441Z,30.66
2022-08-11T12:41:17.394Z,30.59
2022-08-11T12:42:38.868Z,30.59
2022-08-11T12:44:04.254Z,30.62
2022-08-11T12:45:29.711Z,30.73
2022-08-11T12:46:37.880Z,30.78
2022-08-11T12:48:38.173Z,30.91
2022-08-11T12:49:49.700Z,31.01
2022-08-11T12:52:00.575Z,31.18
2022-08-11T12:52:58.655Z,31.29
2022-08-11T12:54:07.643Z,31.29
2022-08-11T12:55:34.943Z,31.23
2022-08-11T12:57:27.582Z,31.16
2022-08-11T12:58:41.892Z,31.18
2022-08-11T13:00:02.412Z,31.21
2022-08-11T13:01:22.808Z,31.23
2022-08-11T13:02:44.567Z,31.15
2022-08-11T13:04:04.789Z,31.08
2022-08-11T13:05:08.982Z,31.07
2022-08-11T13:06:11.586Z,31.06
2022-08-11T13:07:14.462Z,31.02
2022-08-11T13:08:17.383Z,30.98
2022-08-11T13:09:20.875Z,30.91
2022-08-11T13:10:41.377Z,30.84
2022-08-11T13:12:04.007Z,30.78
2022-08-11T13:13:55.084Z,30.74
2022-08-11T13:14:33.090Z,30.70
2022-08-11T13:15:38.503Z,30.61
2022-08-11T13:16:59.679Z,30.63
2022-08-11T13:18:02.192Z,30.63
2022-08-11T13:19:03.945Z,30.66
2022-08-11T13:20:07.143Z,30.74
2022-08-11T13:21:12.013Z,30.87
2022-08-11T13:22:24.482Z,30.91
2022-08-11T13:23:27.557Z,30.88
2022-08-11T13:24:30.316Z,30.79
2022-08-11T13:25:33.586Z,30.75
2022-08-11T13:26:48.378Z,30.85
2022-08-11T13:27:56.185Z,30.93
2022-08-11T13:29:02.428Z,31.04
2022-08-11T13:30:23.533Z,31.10
2022-08-11T13:31:25.320Z,31.14
2022-08-11T13:32:29.863Z,30.99
2022-08-11T13:33:33.207Z,30.95
2022-08-11T13:34:41.643Z,30.91
2022-08-11T13:35:46.425Z,30.85
2022-08-11T13:36:52.232Z,30.72
2022-08-11T13:38:17.289Z,30.69
2022-08-11T13:39:18.597Z,30.68
2022-08-11T13:40:33.175Z,30.70
2022-08-11T13:41:47.837Z,30.84
2022-08-11T13:42:51.045Z,30.85
2022-08-11T13:43:54.498Z,30.81
2022-08-11T13:44:57.875Z,30.92
2022-08-11T13:46:18.248Z,31.01
2022-08-11T13:47:23.681Z,31.13
2022-08-11T13:48:25.357Z,31.16
2022-08-11T13:49:27.925Z,31.15
2022-08-11T13:50:48.104Z,31.14
2022-08-11T13:51:50.514Z,31.17
2022-08-11T13:52:53.304Z,31.16
2022-08-11T13:53:57.885Z,31.13
2022-08-11T13:55:05.025Z,31.11
2022-08-11T13:56:07.079Z,31.15
2022-08-11T13:58:05.937Z,31.18
2022-08-11T13:58:39.596Z,31.17
2022-08-11T13:59:52.068Z,31.14
2022-08-11T14:00:55.173Z,31.08
2022-08-11T14:02:21.812Z,31.07
2022-08-11T14:04:28.490Z,31.05
2022-08-11T14:04:50.147Z,30.99
2022-08-11T14:05:56.642Z,30.95
2022-08-11T14:07:01.619Z,30.94
2022-08-11T14:08:09.613Z,30.96
2022-08-11T14:09:40.148Z,30.90
2022-08-11T14:10:42.652Z,30.99
2022-08-11T14:12:23.114Z,31.01
2022-08-11T14:13:41.334Z,30.95
2022-08-11T14:14:49.504Z,30.98
2022-08-11T14:15:53.101Z,30.96
2022-08-11T14:16:57.337Z,30.99
2022-08-11T14:18:05.459Z,30.99
2022-08-11T14:19:11.866Z,31.00
2022-08-11T14:20:38.501Z,30.99
2022-08-11T14:22:07.708Z,31.01
2022-08-11T14:23:15.041Z,30.93
2022-08-11T14:24:18.059Z,30.90
2022-08-11T14:25:19.729Z,30.96
2022-08-11T14:26:29.077Z,31.01
2022-08-11T14:27:39.130Z,31.12
2022-08-11T14:29:00.624Z,31.23
2022-08-11T14:30:02.748Z,31.29
2022-08-11T14:31:07.274Z,31.28
2022-08-11T14:32:12.243Z,31.34
2022-08-11T14:33:17.107Z,31.31
2022-08-11T14:34:29.910Z,31.22
2022-08-11T14:35:31.620Z,31.15
2022-08-11T14:36:45.552Z,31.12
2022-08-11T14:37:47.956Z,31.08
2022-08-11T14:38:50.492Z,30.99
2022-08-11T14:40:03.221Z,30.62
2022-08-11T14:41:26.114Z,30.66
2022-08-11T14:42:46.294Z,30.67
2022-08-11T14:44:14.028Z,30.74
2022-08-11T14:45:57.962Z,30.80
2022-08-11T14:47:23.314Z,30.90
2022-08-11T14:48:27.001Z,30.93
2022-08-11T14:49:29.777Z,30.93
2022-08-11T14:50:34.761Z,31.02
2022-08-11T14:51:36.892Z,31.05
2022-08-11T14:52:57.296Z,31.20
2022-08-11T14:54:20.483Z,31.22
2022-08-11T14:55:42.936Z,31.31
2022-08-11T14:56:44.806Z,31.22
2022-08-11T14:57:54.421Z,31.28
2022-08-11T14:58:57.619Z,31.30
2022-08-11T15:00:02.781Z,31.33
2022-08-11T15:01:25.008Z,31.36
2022-08-11T15:02:46.500Z,31.24
2022-08-11T15:04:27.311Z,31.18
2022-08-11T15:05:13.122Z,31.13
2022-08-11T15:06:14.752Z,31.03
2022-08-11T15:07:17.376Z,30.97
2022-08-11T15:08:20.525Z,31.00
2022-08-11T15:09:22.376Z,30.91
2022-08-11T15:10:25.347Z,30.72
2022-08-11T15:11:50.058Z,30.46
2022-08-11T15:12:52.281Z,30.48
2022-08-11T15:13:56.016Z,30.55
2022-08-11T15:15:16.739Z,30.54
2022-08-11T15:16:37.015Z,30.18
2022-08-11T15:17:43.548Z,29.99
2022-08-11T15:18:45.907Z,29.89
2022-08-11T15:20:08.096Z,29.78
2022-08-11T15:21:28.435Z,29.78
2022-08-11T15:22:48.659Z,29.71
2022-08-11T15:24:09.079Z,29.60
2022-08-11T15:25:11.173Z,29.57
2022-08-11T15:27:11.821Z,29.67
2022-08-11T15:28:34.078Z,29.92
2022-08-11T15:29:57.792Z,30.10
2022-08-11T15:31:18.869Z,30.19
2022-08-11T15:32:22.828Z,30.28
2022-08-11T15:33:47.417Z,30.09
2022-08-11T15:35:26.032Z,29.88
2022-08-11T15:37:02.367Z,29.84
2022-08-11T15:38:05.058Z,29.98
2022-08-11T15:39:21.019Z,29.87
2022-08-11T15:40:48.155Z,29.72
2022-08-11T15:42:27.533Z,29.66
2022-08-11T15:43:59.652Z,29.80
2022-08-11T15:45:24.372Z,29.94
2022-08-11T15:46:39.675Z,30.01
2022-08-11T15:47:46.191Z,30.00
2022-08-11T15:48:56.183Z,30.01
2022-08-11T15:50:10.430Z,30.06
2022-08-11T15:51:26.928Z,30.12
2022-08-11T15:52:43.517Z,30.07
2022-08-11T15:53:56.661Z,30.03
2022-08-11T15:55:02.268Z,29.99
2022-08-11T15:56:06.546Z,29.77
2022-08-11T15:57:10.080Z,29.51
2022-08-11T15:58:31.939Z,29.41
2022-08-11T15:59:55.620Z,29.16
2022-08-11T16:01:19.299Z,29.23
2022-08-11T16:02:25.327Z,29.29
2022-08-11T16:04:05.811Z,29.36
2022-08-11T16:05:13.541Z,29.49
2022-08-11T16:06:16.038Z,29.55
2022-08-11T16:07:26.700Z,29.57
2022-08-11T16:08:32.943Z,29.57
2022-08-11T16:09:51.979Z,29.62
2022-08-11T16:10:57.365Z,29.47
2022-08-11T16:12:03.800Z,29.37
2022-08-11T16:13:06.592Z,29.42
2022-08-11T16:14:28.723Z,29.38
2022-08-11T16:15:51.596Z,29.23
2022-08-11T16:16:54.343Z,28.95
2022-08-11T16:18:06.764Z,28.68
2022-08-11T16:19:10.879Z,28.59
2022-08-11T16:20:15.572Z,28.52
2022-08-11T16:21:35.228Z,28.54
2022-08-11T16:23:02.208Z,28.54
2022-08-11T16:24:08.225Z,28.48
2022-08-11T16:27:06.206Z,28.47
2022-08-11T16:27:10.017Z,28.52
2022-08-11T16:28:05.722Z,28.48
2022-08-11T16:29:08.862Z,28.31
2022-08-11T16:30:11.327Z,28.22
2022-08-11T16:31:15.265Z,28.31
2022-08-11T16:32:23.309Z,28.24
2022-08-11T16:33:50.021Z,28.16
2022-08-11T16:35:21.326Z,28.02
2022-08-11T16:36:43.917Z,27.85
2022-08-11T16:38:05.588Z,27.81
2022-08-11T16:39:12.288Z,27.95
2022-08-11T16:40:15.196Z,28.04
2022-08-11T16:41:42.008Z,28.12
2022-08-11T16:43:10.980Z,28.26
2022-08-11T16:44:37.573Z,28.39
2022-08-11T16:46:00.164Z,28.38
2022-08-11T16:47:04.557Z,28.38
2022-08-11T16:48:35.621Z,28.49
2022-08-11T16:49:34.921Z,28.56
2022-08-11T16:50:39.754Z,28.62
2022-08-11T16:51:41.461Z,28.71
2022-08-11T16:52:43.484Z,28.76
2022-08-11T16:54:04.814Z,28.84
2022-08-11T16:55:09.687Z,28.86